This is the latest recevied weather packets stored in our database for station/object WK1F-2. If no packets are shown the sender has not sent any weather packets the latest 1 day(s).
| Time | Temp. | Humidity | Pressure | Rain* | Wind** | Luminosity | Snow |
|---|---|---|---|---|---|---|---|
| 1778101352 | 27.22° C | 64% | 1013.9 hPa | 0 mm | - | - | - |
| 1778101052 | 27.22° C | 62% | 1013.8 hPa | 0 mm | - | - | - |
| 1778100752 | 27.22° C | 64% | 1013.8 hPa | 0 mm | - | - | - |
| 1778100452 | 27.22° C | 64% | 1013.8 hPa | 0 mm | - | - | - |
| 1778100152 | 27.22° C | 64% | 1013.9 hPa | 0 mm | - | - | - |
| 1778091751 | 28.89° C | 56% | 1015.4 hPa | 0 mm | - | - | - |
| 1778090251 | 30° C | 46% | 1015.6 hPa | 0 mm | - | - | - |
| 1778089951 | 30° C | 46% | 1015.7 hPa | 0 mm | - | - | - |
| 1778089651 | 29.44° C | 47% | 1015.8 hPa | 0 mm | - | - | - |
| 1778089351 | 30° C | 46% | 1015.9 hPa | 0 mm | - | - | - |
| 1778088751 | 30° C | 47% | 1016 hPa | 0 mm | - | - | - |
| 1778088451 | 29.44° C | 47% | 1016.1 hPa | 0 mm | - | - | - |
| 1778088151 | 29.44° C | 47% | 1016.1 hPa | 0 mm | - | - | - |
| 1778087851 | 29.44° C | 47% | 1016.1 hPa | 0 mm | - | - | - |
| 1778087551 | 29.44° C | 47% | 1016.3 hPa | 0 mm | - | - | - |
| 1778087251 | 29.44° C | 47% | 1016.3 hPa | 0 mm | - | - | - |
| 1778086951 | 29.44° C | 49% | 1016.3 hPa | 0 mm | - | - | - |
| 1778086651 | 29.44° C | 48% | 1016.4 hPa | 0 mm | - | - | - |
| 1778086351 | 28.89° C | 50% | 1016.5 hPa | 0 mm | - | - | - |
| 1778080050 | 26.67° C | 56% | 1016.7 hPa | 0 mm | - | - | - |
| 1778078550 | 26.11° C | 59% | 1016.8 hPa | 0 mm | - | - | - |
| 1778077950 | 25.56° C | 60% | 1016.7 hPa | 0 mm | - | - | - |
| 1778077650 | 25.56° C | 60% | 1016.6 hPa | 0 mm | - | - | - |
| 1778077350 | 25.56° C | 62% | 1016.7 hPa | 0 mm | - | - | - |
| 1778077050 | 25° C | 61% | 1016.8 hPa | 0 mm | - | - | - |
* Rain latest hour (hover to see other rain measurements)
** Current wind speed in m/s (hover to see current wind gust speed)